createdAt,value
2018-02-05T00:00:12.169Z,36.28
2018-02-05T00:02:39.700Z,33.38
2018-02-05T00:05:07.369Z,38.15
2018-02-05T00:07:34.968Z,30.40
2018-02-05T00:10:02.576Z,35.08
2018-02-05T00:12:30.245Z,37.80
2018-02-05T00:14:58.013Z,39.33
2018-02-05T00:17:26.300Z,36.10
2018-02-05T00:19:54.181Z,33.10
2018-02-05T00:22:21.862Z,29.73
2018-02-05T00:24:49.386Z,34.92
2018-02-05T00:27:18.558Z,31.62
2018-02-05T00:29:46.447Z,29.33
2018-02-05T00:32:14.186Z,29.45
2018-02-05T00:34:42.469Z,30.80
2018-02-05T00:37:10.368Z,27.27
2018-02-05T00:39:37.882Z,29.15
2018-02-05T00:42:06.157Z,36.55
2018-02-05T00:44:33.694Z,27.27
2018-02-05T00:47:01.224Z,30.50
2018-02-05T00:49:28.735Z,25.92
2018-02-05T00:51:57.018Z,27.87
2018-02-05T00:54:25.334Z,28.40
2018-02-05T00:56:52.896Z,23.77
2018-02-05T00:59:20.426Z,25.30
2018-02-05T01:01:48.693Z,25.27
2018-02-05T01:04:16.973Z,27.30
2018-02-05T01:06:45.270Z,31.08
2018-02-05T01:09:13.293Z,27.13
2018-02-05T01:11:40.808Z,27.33
2018-02-05T01:14:08.324Z,32.67
2018-02-05T01:16:35.823Z,26.52
2018-02-05T01:19:03.376Z,26.55
2018-02-05T01:21:30.956Z,30.85
2018-02-05T01:23:58.491Z,24.17
2018-02-05T01:26:26.778Z,21.48
2018-02-05T01:28:54.328Z,31.15
2018-02-05T01:31:21.841Z,28.65
2018-02-05T01:33:49.753Z,30.05
2018-02-05T01:36:18.033Z,28.80
2018-02-05T01:38:45.559Z,28.70
2018-02-05T01:41:13.172Z,22.02
2018-02-05T01:43:40.718Z,22.02
2018-02-05T01:46:08.222Z,26.83
2018-02-05T01:48:35.767Z,30.42
2018-02-05T01:51:03.319Z,31.67
2018-02-05T01:53:30.873Z,26.23
2018-02-05T01:55:58.430Z,24.85
2018-02-05T01:58:25.944Z,28.75
2018-02-05T02:00:53.557Z,31.67
2018-02-05T02:03:21.090Z,29.77
2018-02-05T02:05:49.495Z,24.35
2018-02-05T02:08:17.030Z,29.63
2018-02-05T02:10:45.341Z,35.90
2018-02-05T02:13:13.214Z,26.90
2018-02-05T02:15:40.738Z,29.87
2018-02-05T02:18:09.045Z,31.15
2018-02-05T02:20:36.579Z,30.65
2018-02-05T02:23:05.008Z,25.48
2018-02-05T02:25:32.533Z,28.87
2018-02-05T02:28:00.160Z,36.15
2018-02-05T02:30:27.688Z,29.75
2018-02-05T02:32:55.187Z,26.50
2018-02-05T02:35:23.487Z,29.30
2018-02-05T02:37:50.998Z,27.45
2018-02-05T02:40:18.610Z,30.50
2018-02-05T02:42:46.127Z,32.03
2018-02-05T02:45:15.979Z,35.05
2018-02-05T02:47:43.521Z,29.65
2018-02-05T02:50:11.819Z,30.92
2018-02-05T02:52:39.326Z,32.10
2018-02-05T02:55:06.845Z,33.88
2018-02-05T02:57:34.364Z,33.00
2018-02-05T03:00:01.981Z,30.02
2018-02-05T03:02:29.510Z,35.17
2018-02-05T03:04:57.791Z,36.38
2018-02-05T03:07:26.867Z,32.05
2018-02-05T03:09:54.374Z,31.77
2018-02-05T03:12:21.903Z,31.85
2018-02-05T03:14:50.178Z,30.30
2018-02-05T03:17:18.573Z,27.20
2018-02-05T03:19:46.137Z,32.78
2018-02-05T03:22:13.693Z,27.45
2018-02-05T03:24:41.266Z,35.80
2018-02-05T03:27:08.827Z,28.08
2018-02-05T03:29:36.372Z,30.02
2018-02-05T03:32:03.893Z,32.15
2018-02-05T03:34:31.390Z,31.92
2018-02-05T03:36:58.898Z,37.80
2018-02-05T03:39:26.422Z,39.10
2018-02-05T03:41:53.917Z,36.30
2018-02-05T03:44:21.438Z,40.25
2018-02-05T03:46:48.990Z,31.35
2018-02-05T03:49:17.275Z,34.95
2018-02-05T03:51:44.798Z,36.70
2018-02-05T03:54:13.090Z,32.80
2018-02-05T03:56:41.369Z,32.63
2018-02-05T03:59:09.662Z,35.63
2018-02-05T04:01:37.235Z,31.35
2018-02-05T04:04:04.792Z,27.33
2018-02-05T04:06:32.301Z,32.25
2018-02-05T04:08:59.810Z,33.55
2018-02-05T04:11:27.319Z,40.63
2018-02-05T04:13:54.831Z,31.50
2018-02-05T04:16:22.338Z,35.05
2018-02-05T04:18:50.680Z,29.15
2018-02-05T04:21:18.185Z,31.05
2018-02-05T04:23:45.709Z,33.15
2018-02-05T04:26:13.244Z,30.30
2018-02-05T04:28:40.759Z,28.25
2018-02-05T04:31:08.285Z,28.92
2018-02-05T04:33:35.803Z,27.60
2018-02-05T04:36:04.151Z,31.60
2018-02-05T04:38:31.701Z,26.77
2018-02-05T04:40:59.227Z,29.70
2018-02-05T04:43:26.739Z,26.70
2018-02-05T04:45:54.262Z,31.60
2018-02-05T04:48:21.805Z,32.15
2018-02-05T04:50:49.374Z,32.47
2018-02-05T04:53:16.897Z,27.85
2018-02-05T04:55:45.300Z,28.90
2018-02-05T04:58:12.936Z,25.50
2018-02-05T05:00:40.417Z,29.37
2018-02-05T05:03:07.923Z,29.50
2018-02-05T05:05:35.541Z,28.20
2018-02-05T05:08:03.103Z,34.63
2018-02-05T05:10:30.621Z,30.15
2018-02-05T05:12:58.158Z,25.67
2018-02-05T05:15:25.692Z,30.48
2018-02-05T05:17:53.215Z,32.90
2018-02-05T05:20:21.531Z,27.33
2018-02-05T05:22:49.106Z,24.15
2018-02-05T05:25:16.644Z,29.73
2018-02-05T05:27:44.170Z,25.30
2018-02-05T05:30:11.687Z,27.45
2018-02-05T05:32:39.225Z,28.30
2018-02-05T05:35:06.736Z,27.65
2018-02-05T05:37:34.347Z,26.83
2018-02-05T05:40:01.898Z,24.95
2018-02-05T05:42:29.417Z,28.08
2018-02-05T05:44:57.018Z,27.85
2018-02-05T05:47:24.583Z,27.73
2018-02-05T05:49:52.093Z,27.15
2018-02-05T05:52:19.595Z,27.00
2018-02-05T05:54:47.876Z,29.42
2018-02-05T05:57:15.385Z,31.15
2018-02-05T05:59:42.916Z,27.85
2018-02-05T06:02:10.473Z,34.22
2018-02-05T06:04:38.039Z,32.20
2018-02-05T06:07:05.597Z,28.75
2018-02-05T06:09:33.151Z,30.33
2018-02-05T06:12:00.708Z,31.23
2018-02-05T06:14:28.222Z,33.42
2018-02-05T06:16:55.726Z,31.25
2018-02-05T06:19:23.297Z,29.70
2018-02-05T06:21:50.841Z,29.63
2018-02-05T06:24:18.884Z,45.90
2018-02-05T06:26:46.483Z,70.03
2018-02-05T06:29:13.999Z,48.30
2018-02-05T06:31:41.503Z,32.55
2018-02-05T06:34:09.026Z,32.83
2018-02-05T06:36:37.302Z,29.52
2018-02-05T06:39:04.838Z,28.42
2018-02-05T06:41:32.451Z,31.45
2018-02-05T06:44:00.020Z,30.95
2018-02-05T06:46:27.630Z,31.48
2018-02-05T06:48:55.142Z,33.03
2018-02-05T06:51:34.578Z,24.25
2018-02-05T06:54:14.242Z,38.50
2018-02-05T06:56:41.758Z,32.22
2018-02-05T06:59:10.068Z,29.37
2018-02-05T07:01:37.709Z,31.05
2018-02-05T07:04:05.997Z,28.05
2018-02-05T07:06:33.542Z,30.75
2018-02-05T07:09:01.849Z,25.85
2018-02-05T07:11:29.397Z,30.40
2018-02-05T07:13:56.911Z,27.65
2018-02-05T07:16:24.406Z,30.40
2018-02-05T07:18:52.701Z,28.08
2018-02-05T07:21:20.214Z,36.70
2018-02-05T07:23:47.810Z,24.10
2018-02-05T07:26:15.314Z,35.20
2018-02-05T07:28:42.820Z,31.75
2018-02-05T07:31:11.114Z,31.90
2018-02-05T07:33:38.614Z,46.10
2018-02-05T07:36:06.519Z,28.17
2018-02-05T07:38:34.806Z,32.83
2018-02-05T07:41:02.325Z,29.30
2018-02-05T07:43:29.850Z,28.17
2018-02-05T07:45:57.394Z,31.00
2018-02-05T07:48:24.906Z,26.85
2018-02-05T07:50:52.515Z,29.60
2018-02-05T07:53:20.089Z,23.87
2018-02-05T07:55:47.709Z,24.30
2018-02-05T07:58:15.194Z,24.70
2018-02-05T08:00:42.717Z,23.35
2018-02-05T08:03:10.242Z,20.95
2018-02-05T08:05:37.757Z,28.90
2018-02-05T08:08:06.045Z,24.35
2018-02-05T08:10:33.567Z,25.73
2018-02-05T08:13:01.077Z,22.08
2018-02-05T08:15:28.642Z,25.58
2018-02-05T08:17:56.159Z,22.55
2018-02-05T08:20:23.771Z,22.48
2018-02-05T08:22:51.324Z,21.25
2018-02-05T08:25:18.838Z,24.20
2018-02-05T08:27:46.350Z,23.15
2018-02-05T08:30:13.876Z,21.85
2018-02-05T08:32:42.442Z,23.73
2018-02-05T08:35:10.159Z,26.50
2018-02-05T08:37:38.143Z,22.80
2018-02-05T08:40:06.020Z,21.25
2018-02-05T08:42:33.538Z,24.45
2018-02-05T08:45:01.109Z,26.27
2018-02-05T08:47:28.663Z,24.35
2018-02-05T08:49:56.342Z,25.80
2018-02-05T08:52:23.869Z,23.02
2018-02-05T08:54:52.339Z,23.62
2018-02-05T08:57:19.947Z,24.30
2018-02-05T08:59:47.474Z,21.40
2018-02-05T09:02:15.779Z,24.98
2018-02-05T09:04:43.339Z,24.27
2018-02-05T09:07:10.842Z,23.58
2018-02-05T09:09:38.610Z,25.35
2018-02-05T09:12:06.164Z,21.80
2018-02-05T09:14:33.819Z,24.90
2018-02-05T09:17:01.454Z,26.37
2018-02-05T09:19:29.067Z,23.50
2018-02-05T09:21:57.484Z,23.75
2018-02-05T09:24:25.322Z,27.87
2018-02-05T09:26:53.995Z,20.73
2018-02-05T09:29:22.400Z,26.80
2018-02-05T09:31:50.698Z,21.55
2018-02-05T09:34:18.223Z,19.52
2018-02-05T09:36:45.807Z,26.17
2018-02-05T09:39:14.234Z,23.17
2018-02-05T09:41:41.772Z,23.25
2018-02-05T09:44:09.328Z,22.95
2018-02-05T09:46:36.843Z,25.83
2018-02-05T09:49:04.337Z,27.10
2018-02-05T09:51:31.884Z,26.15
2018-02-05T09:54:00.150Z,27.33
2018-02-05T09:56:28.463Z,40.75
2018-02-05T09:58:55.977Z,78.68
2018-02-05T10:01:23.562Z,26.58
2018-02-05T10:03:51.138Z,25.23
2018-02-05T10:06:18.703Z,35.00
2018-02-05T10:08:46.223Z,29.58
2018-02-05T10:11:13.814Z,24.63
2018-02-05T10:13:41.333Z,41.15
2018-02-05T10:16:08.876Z,28.30
2018-02-05T10:18:36.414Z,31.02
2018-02-05T10:21:03.960Z,32.00
2018-02-05T10:23:31.484Z,32.22
2018-02-05T10:25:59.800Z,37.38
2018-02-05T10:28:27.381Z,30.98
2018-02-05T10:30:54.951Z,36.60
2018-02-05T10:33:22.470Z,28.25
2018-02-05T10:35:49.997Z,34.05
2018-02-05T10:38:17.507Z,29.73
2018-02-05T10:40:45.020Z,27.67
2018-02-05T10:43:12.616Z,30.95
2018-02-05T10:45:40.127Z,34.20
2018-02-05T10:48:07.662Z,31.83
2018-02-05T10:50:35.189Z,29.27
2018-02-05T10:53:02.861Z,28.55
2018-02-05T10:55:30.431Z,27.00
2018-02-05T10:57:57.975Z,35.33
2018-02-05T11:00:25.573Z,30.00
2018-02-05T11:02:53.115Z,23.85
2018-02-05T11:05:21.705Z,22.33
2018-02-05T11:07:49.259Z,27.37
2018-02-05T11:10:16.817Z,31.98
2018-02-05T11:12:44.389Z,27.10
2018-02-05T11:15:12.041Z,21.77
2018-02-05T11:17:39.561Z,21.27
2018-02-05T11:20:07.912Z,19.25
2018-02-05T11:22:36.242Z,21.27
2018-02-05T11:25:03.848Z,17.52
2018-02-05T11:27:32.187Z,23.23
2018-02-05T11:29:59.700Z,20.37
2018-02-05T11:32:27.294Z,20.08
2018-02-05T11:34:55.584Z,21.75
2018-02-05T11:37:23.138Z,21.23
2018-02-05T11:39:50.642Z,25.62
2018-02-05T11:42:18.146Z,32.10
2018-02-05T11:44:46.490Z,21.60
2018-02-05T11:47:14.000Z,34.10
2018-02-05T11:49:41.544Z,26.33
2018-02-05T11:52:09.972Z,28.52
2018-02-05T11:54:37.604Z,33.78
2018-02-05T11:57:05.398Z,27.07
2018-02-05T11:59:32.900Z,27.73
2018-02-05T12:02:00.513Z,29.50
2018-02-05T12:04:28.087Z,30.75
2018-02-05T12:06:55.602Z,30.08
2018-02-05T12:09:23.102Z,28.85
2018-02-05T12:11:50.610Z,36.30
2018-02-05T12:14:19.006Z,33.85
2018-02-05T12:16:46.521Z,27.37
2018-02-05T12:19:14.148Z,27.60
2018-02-05T12:21:41.657Z,27.20
2018-02-05T12:24:09.246Z,27.42
2018-02-05T12:26:36.782Z,30.65
2018-02-05T12:29:04.287Z,33.05
2018-02-05T12:31:31.891Z,30.85
2018-02-05T12:34:00.186Z,24.40
2018-02-05T12:36:28.478Z,28.52
2018-02-05T12:38:55.986Z,27.62
2018-02-05T12:41:23.499Z,27.05
2018-02-05T12:43:51.839Z,31.80
2018-02-05T12:46:19.366Z,24.85
2018-02-05T12:48:46.890Z,25.40
2018-02-05T12:51:15.286Z,28.35
2018-02-05T12:53:42.790Z,27.92
2018-02-05T12:56:10.318Z,25.67
2018-02-05T12:58:37.817Z,29.87
2018-02-05T13:14:25.779Z,33.15
2018-02-05T13:16:54.221Z,30.17
2018-02-05T13:19:21.756Z,30.30
2018-02-05T13:21:49.408Z,33.00
2018-02-05T13:24:16.931Z,26.35
2018-02-05T13:26:45.226Z,25.17
2018-02-05T13:29:12.735Z,25.83
2018-02-05T13:31:40.259Z,32.47
2018-02-05T13:34:07.771Z,26.17
2018-02-05T13:36:35.298Z,24.00
2018-02-05T13:39:02.825Z,21.00
2018-02-05T13:41:31.235Z,29.98
2018-02-05T13:43:58.860Z,24.50
2018-02-05T13:46:27.142Z,20.67
2018-02-05T13:48:55.435Z,24.50
2018-02-05T13:51:22.960Z,29.42
2018-02-05T13:53:51.284Z,23.25
2018-02-05T13:56:18.827Z,28.98
2018-02-05T13:58:46.337Z,27.27
2018-02-05T14:01:13.962Z,23.40
2018-02-05T14:03:41.525Z,31.58
2018-02-05T14:06:09.090Z,24.40
2018-02-05T14:08:36.644Z,25.45
2018-02-05T14:11:04.155Z,22.48
2018-02-05T14:13:31.759Z,19.55
2018-02-05T14:15:59.285Z,24.73
2018-02-05T14:18:27.577Z,23.73
2018-02-05T14:20:55.867Z,24.23
2018-02-05T14:23:23.409Z,21.95
2018-02-05T14:25:51.718Z,23.60
2018-02-05T14:28:19.283Z,52.65
2018-02-05T14:30:46.831Z,28.62
2018-02-05T14:33:14.404Z,76.10
2018-02-05T14:35:41.915Z,45.85
2018-02-05T14:38:09.515Z,27.77
2018-02-05T14:40:37.068Z,31.85
2018-02-05T14:43:04.596Z,29.25
2018-02-05T14:45:32.177Z,24.70
2018-02-05T14:47:59.781Z,60.47
2018-02-05T14:50:27.332Z,33.55
2018-02-05T14:52:54.867Z,23.10
2018-02-05T14:55:22.394Z,27.87
2018-02-05T14:57:49.925Z,27.55
2018-02-05T15:00:17.453Z,29.23
2018-02-05T15:02:45.026Z,38.15
2018-02-05T15:05:12.578Z,47.55
2018-02-05T15:07:40.154Z,56.10
2018-02-05T15:10:07.680Z,48.63
2018-02-05T15:12:35.963Z,73.65
2018-02-05T15:15:03.542Z,32.85
2018-02-05T15:17:31.110Z,48.67
2018-02-05T15:19:58.639Z,32.50
2018-02-05T15:22:27.013Z,34.80
2018-02-05T15:24:55.316Z,54.40
2018-02-05T15:27:22.915Z,18.70
2018-02-05T15:29:50.424Z,22.60
2018-02-05T15:32:18.808Z,41.78
2018-02-05T15:34:46.347Z,23.10
2018-02-05T15:37:14.636Z,24.95
2018-02-05T15:39:42.930Z,23.25
2018-02-05T15:42:10.535Z,26.23
2018-02-05T15:44:38.041Z,22.48
2018-02-05T15:47:05.611Z,34.95
2018-02-05T15:49:33.156Z,33.78
2018-02-05T15:52:01.472Z,17.35
2018-02-05T15:54:29.046Z,16.37
2018-02-05T15:56:56.586Z,16.27
2018-02-05T15:59:24.159Z,12.75
2018-02-05T16:01:51.814Z,13.40
2018-02-05T16:04:19.657Z,25.48
2018-02-05T16:06:47.318Z,12.25
2018-02-05T16:09:15.010Z,14.75
2018-02-05T16:11:42.608Z,16.27
2018-02-05T16:14:10.238Z,10.45
2018-02-05T16:16:37.784Z,13.20
2018-02-05T16:19:05.656Z,15.68
2018-02-05T16:21:33.415Z,13.32
2018-02-05T16:24:00.980Z,14.80
2018-02-05T16:26:29.617Z,12.48
2018-02-05T16:28:58.294Z,13.60
2018-02-05T16:31:26.345Z,11.57
2018-02-05T16:33:54.031Z,14.05
2018-02-05T16:36:22.065Z,12.68
2018-02-05T16:38:49.834Z,13.85
2018-02-05T16:41:17.584Z,14.55
2018-02-05T16:43:45.271Z,12.68
2018-02-05T16:46:12.919Z,18.45
2018-02-05T16:48:40.604Z,11.27
2018-02-05T16:51:08.135Z,14.02
2018-02-05T16:53:36.342Z,10.00
2018-02-05T16:56:04.043Z,12.98
2018-02-05T16:58:32.361Z,13.70
2018-02-05T17:01:01.051Z,14.45
2018-02-05T17:03:28.928Z,13.35
2018-02-05T17:05:57.158Z,11.60
2018-02-05T17:08:25.051Z,16.80
2018-02-05T17:10:52.626Z,14.35
2018-02-05T17:13:20.968Z,9.48
2018-02-05T17:15:48.833Z,16.33
2018-02-05T17:18:17.279Z,11.40
2018-02-05T17:20:45.138Z,10.25
2018-02-05T17:23:12.959Z,13.25
2018-02-05T17:25:40.860Z,14.50
2018-02-05T17:28:09.438Z,14.73
2018-02-05T17:30:38.635Z,12.57
2018-02-05T17:35:59.778Z,14.55
2018-02-05T17:38:27.377Z,13.15
2018-02-05T17:40:55.251Z,13.77
2018-02-05T17:43:23.205Z,16.85
2018-02-05T17:45:51.662Z,13.52
2018-02-05T17:48:19.630Z,12.40
2018-02-05T17:50:47.569Z,13.98
2018-02-05T17:53:15.161Z,12.95
2018-02-05T17:55:43.264Z,13.98
2018-02-05T17:58:11.772Z,12.37
2018-02-05T18:00:40.152Z,14.20
2018-02-05T18:03:08.573Z,14.85
2018-02-05T18:05:36.336Z,13.88
2018-02-05T18:08:03.969Z,16.00
2018-02-05T18:10:31.597Z,12.88
2018-02-05T18:12:59.629Z,14.52
2018-02-05T18:15:27.903Z,15.30
2018-02-05T18:17:55.789Z,13.98
2018-02-05T18:20:23.314Z,15.20
2018-02-05T18:22:50.902Z,15.70
2018-02-05T18:25:18.409Z,16.05
2018-02-05T18:27:46.767Z,17.83
2018-02-05T18:30:14.398Z,15.98
2018-02-05T18:32:42.158Z,20.37
2018-02-05T18:35:10.489Z,13.73
2018-02-05T18:37:38.150Z,15.45
2018-02-05T18:40:05.677Z,14.30
2018-02-05T18:42:33.254Z,16.33
2018-02-05T18:45:01.055Z,26.92
2018-02-05T18:47:29.354Z,17.23
2018-02-05T18:49:56.959Z,16.45
2018-02-05T18:52:24.584Z,18.80
2018-02-05T18:54:52.185Z,13.20
2018-02-05T18:57:19.727Z,14.60
2018-02-05T18:59:47.246Z,11.73
2018-02-05T19:05:07.519Z,15.32
2018-02-05T19:07:35.676Z,14.87
2018-02-05T19:10:03.559Z,14.20
2018-02-05T19:12:33.645Z,15.30
2018-02-05T19:15:01.243Z,17.62
2018-02-05T19:17:29.174Z,19.25
2018-02-05T19:19:56.910Z,16.75
2018-02-05T19:22:26.040Z,15.02
2018-02-05T19:24:55.356Z,19.62
2018-02-05T19:27:24.875Z,16.23
2018-02-05T19:29:53.523Z,18.20
2018-02-05T19:32:21.198Z,15.00
2018-02-05T19:35:02.175Z,16.70
2018-02-05T19:37:30.036Z,14.15
2018-02-05T19:39:57.701Z,22.58
2018-02-05T19:42:26.111Z,25.83
2018-02-05T19:44:54.532Z,27.67
2018-02-05T19:47:23.041Z,82.78
2018-02-05T19:49:51.632Z,29.33
2018-02-05T19:52:19.188Z,33.08
2018-02-05T19:54:46.770Z,28.80
2018-02-05T19:57:14.533Z,20.52
2018-02-05T19:59:42.906Z,21.00
2018-02-05T20:02:11.295Z,33.17
2018-02-05T20:04:39.046Z,40.40
2018-02-05T20:07:06.618Z,33.58
2018-02-05T20:09:34.203Z,32.83
2018-02-05T20:12:01.779Z,29.58
2018-02-05T20:14:30.240Z,29.63
2018-02-05T20:16:57.799Z,20.50
2018-02-05T20:19:25.457Z,31.52
2018-02-05T20:21:53.099Z,17.70
2018-02-05T20:24:20.643Z,21.67
2018-02-05T20:26:48.201Z,23.42
2018-02-05T20:29:15.785Z,17.15
2018-02-05T20:31:43.546Z,19.45
2018-02-05T20:34:11.470Z,20.37
2018-02-05T20:36:40.150Z,16.42
2018-02-05T20:39:07.952Z,18.75
2018-02-05T20:41:35.710Z,17.50
2018-02-05T20:44:03.324Z,18.55
2018-02-05T20:46:31.878Z,15.77
2018-02-05T20:48:59.949Z,13.70
2018-02-05T20:51:27.625Z,24.02
2018-02-05T20:53:55.230Z,15.10
2018-02-05T20:56:23.632Z,14.68
2018-02-05T20:58:51.179Z,20.25
2018-02-05T21:01:19.795Z,19.67
2018-02-05T21:03:47.409Z,18.10
2018-02-05T21:06:15.761Z,17.45
2018-02-05T21:08:43.334Z,18.08
2018-02-05T21:11:10.985Z,12.63
2018-02-05T21:13:38.527Z,12.98
2018-02-05T21:16:06.442Z,16.45
2018-02-05T21:18:34.739Z,14.25
2018-02-05T21:21:02.541Z,12.68
2018-02-05T21:23:30.102Z,13.93
2018-02-05T21:25:57.666Z,16.60
2018-02-05T21:28:25.301Z,15.95
2018-02-05T21:30:52.984Z,14.87
2018-02-05T21:33:20.808Z,14.20
2018-02-05T21:35:49.230Z,16.08
2018-02-05T21:38:16.927Z,10.75
2018-02-05T21:40:45.586Z,14.35
2018-02-05T21:43:13.969Z,17.35
2018-02-05T21:45:41.498Z,13.73
2018-02-05T21:48:09.075Z,12.95
2018-02-05T21:50:36.859Z,14.85
2018-02-05T21:53:04.456Z,14.07
2018-02-05T21:55:31.984Z,11.80
2018-02-05T21:57:59.566Z,10.35
2018-02-05T22:00:27.395Z,15.65
2018-02-05T22:02:55.180Z,10.38
2018-02-05T22:05:23.092Z,11.93
2018-02-05T22:07:51.948Z,11.18
2018-02-05T22:10:19.507Z,12.32
2018-02-05T22:12:47.046Z,16.42
2018-02-05T22:15:14.612Z,13.05
2018-02-05T22:17:42.153Z,14.25
2018-02-05T22:20:09.777Z,14.32
2018-02-05T22:22:37.305Z,10.20
2018-02-05T22:25:04.832Z,15.52
2018-02-05T22:27:32.401Z,14.38
2018-02-05T22:29:59.963Z,12.50
2018-02-05T22:32:27.525Z,13.98
2018-02-05T22:34:55.082Z,17.83
2018-02-05T22:37:22.604Z,11.10
2018-02-05T22:39:50.920Z,13.93
2018-02-05T22:42:18.481Z,11.02
2018-02-05T22:44:46.860Z,12.13
2018-02-05T22:47:14.453Z,12.93
2018-02-05T22:49:42.046Z,18.33
2018-02-05T22:52:12.615Z,8.68
2018-02-05T22:54:41.117Z,12.27
2018-02-05T22:57:09.275Z,10.93
2018-02-05T22:59:37.657Z,13.00
2018-02-05T23:02:05.832Z,12.30
2018-02-05T23:04:35.440Z,11.35
2018-02-05T23:09:58.001Z,11.77
2018-02-05T23:12:27.032Z,12.77
2018-02-05T23:14:54.869Z,11.50
2018-02-05T23:17:22.531Z,12.07
2018-02-05T23:19:51.319Z,11.88
2018-02-05T23:22:19.801Z,12.18
2018-02-05T23:24:47.920Z,11.15
2018-02-05T23:27:16.076Z,11.85
2018-02-05T23:29:44.526Z,9.45
2018-02-05T23:32:12.064Z,11.02
2018-02-05T23:34:40.382Z,11.55
2018-02-05T23:37:07.943Z,13.07
2018-02-05T23:39:35.489Z,10.75
2018-02-05T23:42:03.046Z,11.82
2018-02-05T23:44:30.581Z,11.10
2018-02-05T23:46:58.897Z,16.00
2018-02-05T23:49:26.452Z,12.63
2018-02-05T23:51:54.009Z,15.20
2018-02-05T23:54:21.582Z,15.30
2018-02-05T23:56:49.137Z,16.25
2018-02-05T23:59:16.682Z,12.20
